Terminal Aerodrome Forecast
Issued by NWS

Home | Current Version | Previous Version | Text Only | Print | Product List | Glossary On
Versions: 1 2 3 4 5 6 7 8 9 10 11 12 13 14 15 16 17 18 19 20 21
000
FTUS43 KIND 182300
TAFLAF
TAF
KLAF 182320Z 1900/1924 33004KT P6SM BKN015 OVC060
     FM190200 32002KT P6SM BKN020
     FM190900 01002KT P6SM SCT025 BKN100
     FM191600 31003KT P6SM BKN025
      AMD LTD TO CLD VIS AND WIND 1902/1914=

USA.gov is the U.S. government's official web portal to all federal, state and local government web resources and services.